Time,TemperatureF,DewpointF,PressureIn,WindDirection,WindDirectionDegrees,WindSpeedMPH,WindSpeedGustMPH,Humidity,HourlyPrecipIn,Conditions,Clouds,dailyrainin,SoftwareType,DateUTC
2013-09-10 00:06:00,66.8,61.0,30.11,SE,132,1.0,2.0,81,0.00,,,0.00,weatherlink.com 1.10,2013-09-10 04:06:00,
2013-09-10 00:21:00,66.9,61.0,30.11,WNW,288,0.0,1.0,82,0.00,,,0.00,weatherlink.com 1.10,2013-09-10 04:21:00,
2013-09-10 00:36:00,67.0,61.0,30.11,NW,311,0.0,1.0,82,0.00,,,0.00,weatherlink.com 1.10,2013-09-10 04:36:00,
2013-09-10 00:51:00,67.0,61.0,30.10,SSW,192,0.0,3.0,82,0.00,,,0.00,weatherlink.com 1.10,2013-09-10 04:51:00,
2013-09-10 01:06:00,67.0,61.0,30.10,South,178,0.0,4.0,82,0.00,,,0.00,weatherlink.com 1.10,2013-09-10 05:06:00,
2013-09-10 01:21:00,67.0,62.0,30.09,South,175,0.0,4.0,83,0.00,,,0.00,weatherlink.com 1.10,2013-09-10 05:21:00,
2013-09-10 01:36:00,67.0,62.0,30.09,South,183,0.0,3.0,84,0.00,,,0.00,weatherlink.com 1.10,2013-09-10 05:36:00,
2013-09-10 01:51:00,67.1,62.0,30.10,NW,306,0.0,2.0,84,0.00,,,0.00,weatherlink.com 1.10,2013-09-10 05:51:00,
2013-09-10 02:06:00,67.2,62.0,30.10,NW,313,0.0,2.0,84,0.00,,,0.00,weatherlink.com 1.10,2013-09-10 06:06:00,
2013-09-10 02:21:00,67.2,62.0,30.09,South,176,0.0,3.0,84,0.00,,,0.00,weatherlink.com 1.10,2013-09-10 06:21:00,
2013-09-10 02:36:00,67.3,63.0,30.09,SSE,157,0.0,2.0,85,0.00,,,0.00,weatherlink.com 1.10,2013-09-10 06:36:00,
2013-09-10 02:51:00,67.3,63.0,30.09,SSE,160,0.0,3.0,85,0.00,,,0.00,weatherlink.com 1.10,2013-09-10 06:51:00,
2013-09-10 03:07:00,67.3,63.0,30.09,SSE,160,0.0,1.0,85,0.00,,,0.00,weatherlink.com 1.10,2013-09-10 07:07:00,
2013-09-10 03:21:00,67.4,63.0,30.08,ESE,119,0.0,3.0,85,0.00,,,0.00,weatherlink.com 1.10,2013-09-10 07:21:00,
2013-09-10 03:37:00,67.3,63.0,30.09,NW,313,0.0,2.0,86,0.00,,,0.00,weatherlink.com 1.10,2013-09-10 07:37:00,
2013-09-10 03:52:00,67.4,63.0,30.08,South,189,0.0,3.0,86,0.00,,,0.00,weatherlink.com 1.10,2013-09-10 07:52:00,
2013-09-10 04:07:00,67.4,63.0,30.08,SSE,162,0.0,3.0,86,0.00,,,0.00,weatherlink.com 1.10,2013-09-10 08:07:00,
2013-09-10 04:22:00,67.5,64.0,30.08,SSE,163,0.0,1.0,87,0.00,,,0.00,weatherlink.com 1.10,2013-09-10 08:22:00,
2013-09-10 04:37:00,67.5,64.0,30.08,SE,145,0.0,2.0,87,0.00,,,0.00,weatherlink.com 1.10,2013-09-10 08:37:00,
2013-09-10 04:52:00,67.6,64.0,30.08,WNW,284,0.0,1.0,87,0.00,,,0.00,weatherlink.com 1.10,2013-09-10 08:52:00,
2013-09-10 05:07:00,67.7,64.0,30.09,NW,322,0.0,1.0,87,0.00,,,0.00,weatherlink.com 1.10,2013-09-10 09:07:00,
2013-09-10 05:22:00,67.8,64.0,30.08,NNW,330,0.0,1.0,87,0.00,,,0.00,weatherlink.com 1.10,2013-09-10 09:22:00,
2013-09-10 05:37:00,67.9,64.0,30.08,ENE,67,0.0,1.0,87,0.00,,,0.00,weatherlink.com 1.10,2013-09-10 09:37:00,
2013-09-10 05:52:00,68.0,64.0,30.08,SE,136,0.0,3.0,88,0.00,,,0.00,weatherlink.com 1.10,2013-09-10 09:52:00,
2013-09-10 06:07:00,68.1,65.0,30.09,West,265,0.0,1.0,89,0.00,,,0.00,weatherlink.com 1.10,2013-09-10 10:07:00,
2013-09-10 06:22:00,68.4,65.0,30.10,NW,304,0.0,4.0,89,0.00,,,0.00,weatherlink.com 1.10,2013-09-10 10:22:00,
2013-09-10 06:37:00,68.4,65.0,30.09,NNW,327,0.0,3.0,89,0.00,,,0.00,weatherlink.com 1.10,2013-09-10 10:37:00,
2013-09-10 06:52:00,68.5,65.0,30.10,South,171,0.0,2.0,89,0.00,,,0.00,weatherlink.com 1.10,2013-09-10 10:52:00,
2013-09-10 07:07:00,68.6,66.0,30.10,South,172,0.0,1.0,90,0.00,,,0.00,weatherlink.com 1.10,2013-09-10 11:07:00,
2013-09-10 07:22:00,68.8,66.0,30.10,West,261,0.0,2.0,90,0.00,,,0.00,weatherlink.com 1.10,2013-09-10 11:22:00,
2013-09-10 07:37:00,69.0,66.0,30.09,SSW,194,0.0,1.0,90,0.00,,,0.00,weatherlink.com 1.10,2013-09-10 11:37:00,
2013-09-10 07:52:00,69.3,66.0,30.09,South,178,0.0,1.0,90,0.00,,,0.00,weatherlink.com 1.10,2013-09-10 11:52:00,
2013-09-10 08:07:00,69.7,67.0,30.08,SSE,161,0.0,1.0,90,0.00,,,0.00,weatherlink.com 1.10,2013-09-10 12:07:00,
2013-09-10 08:22:00,70.1,67.0,30.09,SE,129,0.0,3.0,90,0.00,,,0.00,weatherlink.com 1.10,2013-09-10 12:22:00,
2013-09-10 08:37:00,70.6,68.0,30.09,NW,313,0.0,3.0,90,0.00,,,0.00,weatherlink.com 1.10,2013-09-10 12:37:00,
2013-09-10 08:52:00,71.2,68.0,30.10,NE,45,0.0,4.0,89,0.00,,,0.00,weatherlink.com 1.10,2013-09-10 12:52:00,
2013-09-10 09:07:00,71.7,68.0,30.10,WSW,250,0.0,3.0,88,0.00,,,0.00,weatherlink.com 1.10,2013-09-10 13:07:00,
2013-09-10 09:22:00,72.4,68.0,30.11,NW,321,0.0,3.0,87,0.00,,,0.00,weatherlink.com 1.10,2013-09-10 13:22:00,
2013-09-10 09:37:00,73.3,69.0,30.11,WSW,257,0.0,2.0,87,0.00,,,0.00,weatherlink.com 1.10,2013-09-10 13:37:00,
2013-09-10 09:52:00,74.6,70.0,30.11,West,269,0.0,5.0,84,0.00,,,0.00,weatherlink.com 1.10,2013-09-10 13:52:00,
2013-09-10 10:22:00,76.6,71.0,30.10,WNW,302,2.0,5.0,82,0.00,,,0.00,weatherlink.com 1.10,2013-09-10 14:22:00,
2013-09-10 10:37:00,77.1,71.0,30.10,West,274,1.0,4.0,81,0.00,,,0.00,weatherlink.com 1.10,2013-09-10 14:37:00,
2013-09-10 10:52:00,77.2,71.0,30.10,West,280,0.0,5.0,80,0.00,,,0.00,weatherlink.com 1.10,2013-09-10 14:52:00,
2013-09-10 11:07:00,78.0,71.0,30.10,SSW,194,1.0,6.0,79,0.00,,,0.00,weatherlink.com 1.10,2013-09-10 15:07:00,
2013-09-10 11:22:00,78.0,71.0,30.10,WSW,251,0.0,6.0,79,0.00,,,0.00,weatherlink.com 1.10,2013-09-10 15:22:00,
2013-09-10 11:37:00,77.3,71.0,30.09,WNW,302,0.0,8.0,80,0.00,,,0.00,weatherlink.com 1.10,2013-09-10 15:37:00,
2013-09-10 11:52:00,77.4,71.0,30.08,South,183,2.0,4.0,81,0.00,,,0.00,weatherlink.com 1.10,2013-09-10 15:52:00,
2013-09-10 12:07:00,78.5,72.0,30.06,West,264,2.0,4.0,81,0.00,,,0.00,weatherlink.com 1.10,2013-09-10 16:07:00,
2013-09-10 12:22:00,80.0,72.0,30.06,NNW,339,0.0,6.0,77,0.00,,,0.00,weatherlink.com 1.10,2013-09-10 16:22:00,
2013-09-10 12:37:00,81.1,73.0,30.07,NW,316,1.0,3.0,75,0.00,,,0.00,weatherlink.com 1.10,2013-09-10 16:37:00,
2013-09-10 12:52:00,81.1,73.0,30.06,WNW,295,0.0,5.0,75,0.00,,,0.00,weatherlink.com 1.10,2013-09-10 16:52:00,
2013-09-10 13:08:00,81.8,73.0,30.06,WNW,303,0.0,1.0,74,0.00,,,0.00,weatherlink.com 1.10,2013-09-10 17:08:00,
2013-09-10 13:23:00,82.5,73.0,30.05,West,279,0.0,2.0,72,0.00,,,0.00,weatherlink.com 1.10,2013-09-10 17:23:00,
2013-09-10 13:38:00,83.4,74.0,30.05,NW,317,0.0,2.0,72,0.00,,,0.00,weatherlink.com 1.10,2013-09-10 17:38:00,
2013-09-10 13:53:00,83.8,73.0,30.03,SSE,165,0.0,4.0,70,0.00,,,0.00,weatherlink.com 1.10,2013-09-10 17:53:00,
2013-09-10 14:08:00,83.8,73.0,30.02,NNW,333,0.0,3.0,71,0.00,,,0.00,weatherlink.com 1.10,2013-09-10 18:08:00,
2013-09-10 14:23:00,83.9,74.0,30.02,SSW,194,0.0,6.0,71,0.00,,,0.00,weatherlink.com 1.10,2013-09-10 18:23:00,
2013-09-10 14:38:00,84.2,73.0,30.01,NW,314,0.0,5.0,70,0.00,,,0.00,weatherlink.com 1.10,2013-09-10 18:38:00,
2013-09-10 14:53:00,84.8,74.0,30.01,WNW,292,0.0,9.0,70,0.00,,,0.00,weatherlink.com 1.10,2013-09-10 18:53:00,
2013-09-10 15:08:00,85.6,74.0,30.01,WNW,284,0.0,5.0,69,0.00,,,0.00,weatherlink.com 1.10,2013-09-10 19:08:00,
2013-09-10 15:23:00,86.0,74.0,30.01,South,180,0.0,3.0,68,0.00,,,0.00,weatherlink.com 1.10,2013-09-10 19:23:00,
2013-09-10 15:38:00,85.9,75.0,30.00,SE,129,2.0,4.0,69,0.00,,,0.00,weatherlink.com 1.10,2013-09-10 19:38:00,
2013-09-10 15:53:00,86.1,74.0,30.00,NW,316,0.0,4.0,68,0.00,,,0.00,weatherlink.com 1.10,2013-09-10 19:53:00,
2013-09-10 16:08:00,86.4,75.0,30.00,WNW,302,0.0,3.0,68,0.00,,,0.00,weatherlink.com 1.10,2013-09-10 20:08:00,
2013-09-10 16:23:00,86.6,74.0,30.00,ENE,59,0.0,4.0,67,0.00,,,0.00,weatherlink.com 1.10,2013-09-10 20:23:00,
2013-09-10 16:38:00,86.7,74.0,30.00,WSW,248,0.0,6.0,67,0.00,,,0.00,weatherlink.com 1.10,2013-09-10 20:38:00,
2013-09-10 16:53:00,86.5,74.0,30.00,West,269,0.0,5.0,67,0.00,,,0.00,weatherlink.com 1.10,2013-09-10 20:53:00,
2013-09-10 17:08:00,86.2,74.0,30.00,ENE,57,0.0,3.0,68,0.00,,,0.00,weatherlink.com 1.10,2013-09-10 21:08:00,
2013-09-10 17:23:00,86.0,74.0,30.00,West,273,0.0,5.0,68,0.00,,,0.00,weatherlink.com 1.10,2013-09-10 21:23:00,
2013-09-10 17:38:00,85.9,74.0,30.00,WNW,286,0.0,7.0,68,0.00,,,0.00,weatherlink.com 1.10,2013-09-10 21:38:00,
2013-09-10 17:53:00,85.6,74.0,30.00,WSW,252,0.0,4.0,69,0.00,,,0.00,weatherlink.com 1.10,2013-09-10 21:53:00,
2013-09-10 18:08:00,85.3,74.0,30.00,WSW,255,1.0,4.0,69,0.00,,,0.00,weatherlink.com 1.10,2013-09-10 22:08:00,
2013-09-10 18:23:00,85.0,74.0,30.01,NW,315,0.0,3.0,70,0.00,,,0.00,weatherlink.com 1.10,2013-09-10 22:23:00,
2013-09-10 18:38:00,84.6,74.0,30.01,NW,304,0.0,2.0,71,0.00,,,0.00,weatherlink.com 1.10,2013-09-10 22:38:00,
2013-09-10 18:53:00,84.1,74.0,30.02,NW,304,0.0,1.0,72,0.00,,,0.00,weatherlink.com 1.10,2013-09-10 22:53:00,
2013-09-10 19:08:00,83.5,74.0,30.01,NW,304,0.0,0.0,73,0.00,,,0.00,weatherlink.com 1.10,2013-09-10 23:08:00,
2013-09-10 19:23:00,83.0,74.0,30.02,NW,304,0.0,0.0,74,0.00,,,0.00,weatherlink.com 1.10,2013-09-10 23:23:00,
2013-09-10 19:38:00,82.4,74.0,30.02,NW,304,0.0,0.0,75,0.00,,,0.00,weatherlink.com 1.10,2013-09-10 23:38:00,
2013-09-10 19:53:00,81.9,74.0,30.02,NW,304,0.0,0.0,76,0.00,,,0.00,weatherlink.com 1.10,2013-09-10 23:53:00,
2013-09-10 20:08:00,81.4,74.0,30.03,NW,304,0.0,0.0,78,0.00,,,0.00,weatherlink.com 1.10,2013-09-11 00:08:00,
2013-09-10 20:23:00,81.1,74.0,30.03,NW,304,0.0,0.0,78,0.00,,,0.00,weatherlink.com 1.10,2013-09-11 00:23:00,
2013-09-10 20:38:00,80.9,74.0,30.04,NW,304,0.0,1.0,79,0.00,,,0.00,weatherlink.com 1.10,2013-09-11 00:38:00,
2013-09-10 20:53:00,80.7,74.0,30.04,NW,304,0.0,1.0,80,0.00,,,0.00,weatherlink.com 1.10,2013-09-11 00:53:00,
2013-09-10 21:08:00,80.5,74.0,30.04,SW,214,0.0,2.0,80,0.00,,,0.00,weatherlink.com 1.10,2013-09-11 01:08:00,
2013-09-10 21:23:00,80.4,74.0,30.04,SW,214,0.0,2.0,81,0.00,,,0.00,weatherlink.com 1.10,2013-09-11 01:23:00,
2013-09-10 21:38:00,80.3,74.0,30.04,SSE,150,0.0,4.0,81,0.00,,,0.00,weatherlink.com 1.10,2013-09-11 01:38:00,
2013-09-10 21:53:00,80.1,74.0,30.05,SE,146,0.0,1.0,82,0.00,,,0.00,weatherlink.com 1.10,2013-09-11 01:53:00,
2013-09-10 22:08:00,79.8,74.0,30.05,SE,140,0.0,1.0,82,0.00,,,0.00,weatherlink.com 1.10,2013-09-11 02:08:00,
2013-09-10 22:23:00,79.4,74.0,30.05,SW,227,0.0,1.0,83,0.00,,,0.00,weatherlink.com 1.10,2013-09-11 02:23:00,
2013-09-10 22:38:00,79.1,74.0,30.05,SW,227,0.0,0.0,84,0.00,,,0.00,weatherlink.com 1.10,2013-09-11 02:38:00,
2013-09-10 22:53:00,78.6,74.0,30.05,SW,227,0.0,1.0,85,0.00,,,0.00,weatherlink.com 1.10,2013-09-11 02:53:00,
2013-09-10 23:08:00,78.4,74.0,30.05,SW,216,0.0,1.0,85,0.00,,,0.00,weatherlink.com 1.10,2013-09-11 03:08:00,
2013-09-10 23:23:00,78.2,74.0,30.05,South,184,0.0,1.0,86,0.00,,,0.00,weatherlink.com 1.10,2013-09-11 03:23:00,
2013-09-10 23:38:00,77.9,74.0,30.06,South,184,0.0,0.0,86,0.00,,,0.00,weatherlink.com 1.10,2013-09-11 03:38:00,
2013-09-10 23:53:00,77.6,74.0,30.05,South,184,0.0,1.0,87,0.00,,,0.00,weatherlink.com 1.10,2013-09-11 03:53:00,